sensor_id;sensor_type;location;lat;lon;timestamp;pressure;altitude;pressure_sealevel;temperature;humidity
37832;BME280;23671;38.090;-122.570;2023-04-01T00:01:52;102303.03;;;16.62;57.08
37832;BME280;23671;38.090;-122.570;2023-04-01T00:04:19;102299.41;;;16.63;56.96
37832;BME280;23671;38.090;-122.570;2023-04-01T00:06:47;102294.06;;;16.63;56.81
37832;BME280;23671;38.090;-122.570;2023-04-01T00:09:15;102298.41;;;16.64;57.30
37832;BME280;23671;38.090;-122.570;2023-04-01T00:11:42;102308.25;;;16.64;57.26
37832;BME280;23671;38.090;-122.570;2023-04-01T00:14:09;102312.50;;;16.66;57.21
37832;BME280;23671;38.090;-122.570;2023-04-01T00:16:37;102315.16;;;16.66;57.13
37832;BME280;23671;38.090;-122.570;2023-04-01T00:19:04;102311.75;;;16.64;56.79
37832;BME280;23671;38.090;-122.570;2023-04-01T00:21:31;102317.81;;;16.66;57.20
37832;BME280;23671;38.090;-122.570;2023-04-01T00:23:58;102315.16;;;16.66;56.94
37832;BME280;23671;38.090;-122.570;2023-04-01T00:26:26;102321.59;;;16.64;56.96
37832;BME280;23671;38.090;-122.570;2023-04-01T00:28:53;102324.75;;;16.69;57.16
37832;BME280;23671;38.090;-122.570;2023-04-01T00:31:20;102316.34;;;16.62;57.05
37832;BME280;23671;38.090;-122.570;2023-04-01T00:33:47;102317.09;;;16.64;57.21
37832;BME280;23671;38.090;-122.570;2023-04-01T00:36:17;102310.06;;;16.63;57.04
37832;BME280;23671;38.090;-122.570;2023-04-01T00:38:44;102316.28;;;16.64;56.95
37832;BME280;23671;38.090;-122.570;2023-04-01T00:41:13;102310.34;;;16.60;57.21
37832;BME280;23671;38.090;-122.570;2023-04-01T00:43:42;102314.81;;;16.60;57.26
37832;BME280;23671;38.090;-122.570;2023-04-01T00:46:10;102301.59;;;16.58;57.16
37832;BME280;23671;38.090;-122.570;2023-04-01T00:48:43;102307.28;;;16.54;57.11
37832;BME280;23671;38.090;-122.570;2023-04-01T00:51:26;102317.81;;;16.55;57.00
37832;BME280;23671;38.090;-122.570;2023-04-01T00:53:56;102318.09;;;16.52;57.25
37832;BME280;23671;38.090;-122.570;2023-04-01T00:56:39;102328.84;;;16.51;56.95
37832;BME280;23671;38.090;-122.570;2023-04-01T00:59:16;102325.47;;;16.49;57.02
37832;BME280;23671;38.090;-122.570;2023-04-01T01:01:45;102328.97;;;16.49;57.47
37832;BME280;23671;38.090;-122.570;2023-04-01T01:04:41;102319.28;;;16.48;57.22
37832;BME280;23671;38.090;-122.570;2023-04-01T01:07:44;102321.31;;;16.45;57.37
37832;BME280;23671;38.090;-122.570;2023-04-01T01:15:25;102323.34;;;16.41;57.29
37832;BME280;23671;38.090;-122.570;2023-04-01T01:24:17;102344.78;;;16.28;56.49
37832;BME280;23671;38.090;-122.570;2023-04-01T01:26:57;102339.59;;;16.27;56.64
37832;BME280;23671;38.090;-122.570;2023-04-01T01:37:56;102349.25;;;16.17;55.80
37832;BME280;23671;38.090;-122.570;2023-04-01T01:40:27;102339.78;;;16.13;55.77
37832;BME280;23671;38.090;-122.570;2023-04-01T01:42:59;102341.00;;;16.09;56.21
37832;BME280;23671;38.090;-122.570;2023-04-01T01:45:27;102343.91;;;16.06;54.99
37832;BME280;23671;38.090;-122.570;2023-04-01T01:47:56;102341.25;;;16.06;55.35
37832;BME280;23671;38.090;-122.570;2023-04-01T01:50:25;102340.66;;;16.13;56.41
37832;BME280;23671;38.090;-122.570;2023-04-01T01:53:02;102337.00;;;16.14;55.07
37832;BME280;23671;38.090;-122.570;2023-04-01T01:55:32;102330.31;;;16.09;55.03
37832;BME280;23671;38.090;-122.570;2023-04-01T01:58:06;102331.03;;;16.00;55.36
37832;BME280;23671;38.090;-122.570;2023-04-01T02:00:35;102329.56;;;15.96;54.88
37832;BME280;23671;38.090;-122.570;2023-04-01T02:03:03;102336.84;;;15.94;54.63
37832;BME280;23671;38.090;-122.570;2023-04-01T02:05:31;102332.44;;;15.93;54.38
37832;BME280;23671;38.090;-122.570;2023-04-01T02:08:13;102328.44;;;15.87;54.16
37832;BME280;23671;38.090;-122.570;2023-04-01T02:10:55;102321.31;;;15.88;54.51
37832;BME280;23671;38.090;-122.570;2023-04-01T02:16:14;102322.75;;;15.81;54.10
37832;BME280;23671;38.090;-122.570;2023-04-01T02:18:46;102322.97;;;15.78;54.42
37832;BME280;23671;38.090;-122.570;2023-04-01T02:21:16;102321.41;;;15.75;54.21
37832;BME280;23671;38.090;-122.570;2023-04-01T02:23:45;102312.03;;;15.70;54.30
37832;BME280;23671;38.090;-122.570;2023-04-01T02:26:14;102318.34;;;15.69;53.88
37832;BME280;23671;38.090;-122.570;2023-04-01T02:28:42;102316.97;;;15.63;54.00
37832;BME280;23671;38.090;-122.570;2023-04-01T02:31:11;102319.97;;;15.59;53.87
37832;BME280;23671;38.090;-122.570;2023-04-01T02:33:39;102311.50;;;15.54;53.85
37832;BME280;23671;38.090;-122.570;2023-04-01T02:36:10;102317.69;;;15.54;54.22
37832;BME280;23671;38.090;-122.570;2023-04-01T02:38:38;102320.34;;;15.54;53.82
37832;BME280;23671;38.090;-122.570;2023-04-01T02:41:05;102333.13;;;15.49;53.85
37832;BME280;23671;38.090;-122.570;2023-04-01T02:43:33;102335.28;;;15.44;53.84
37832;BME280;23671;38.090;-122.570;2023-04-01T02:46:00;102336.34;;;15.41;54.01
37832;BME280;23671;38.090;-122.570;2023-04-01T02:48:28;102331.25;;;15.38;54.31
37832;BME280;23671;38.090;-122.570;2023-04-01T02:50:55;102331.56;;;15.34;53.76
37832;BME280;23671;38.090;-122.570;2023-04-01T02:53:23;102333.72;;;15.29;53.62
37832;BME280;23671;38.090;-122.570;2023-04-01T02:55:50;102331.28;;;15.26;53.85
37832;BME280;23671;38.090;-122.570;2023-04-01T02:58:18;102327.38;;;15.19;53.96
37832;BME280;23671;38.090;-122.570;2023-04-01T03:00:45;102323.13;;;15.16;53.88
37832;BME280;23671;38.090;-122.570;2023-04-01T03:03:13;102325.59;;;15.07;53.52
37832;BME280;23671;38.090;-122.570;2023-04-01T03:05:40;102329.53;;;15.01;53.88
37832;BME280;23671;38.090;-122.570;2023-04-01T03:08:07;102344.66;;;15.01;54.01
37832;BME280;23671;38.090;-122.570;2023-04-01T03:10:34;102347.88;;;14.93;53.82
37832;BME280;23671;38.090;-122.570;2023-04-01T03:13:01;102353.41;;;14.90;53.76
37832;BME280;23671;38.090;-122.570;2023-04-01T03:15:28;102351.06;;;14.86;53.61
37832;BME280;23671;38.090;-122.570;2023-04-01T03:17:55;102350.44;;;14.82;53.83
37832;BME280;23671;38.090;-122.570;2023-04-01T03:20:22;102351.00;;;14.75;53.82
37832;BME280;23671;38.090;-122.570;2023-04-01T03:22:49;102353.84;;;14.72;53.75
37832;BME280;23671;38.090;-122.570;2023-04-01T03:25:17;102353.34;;;14.67;53.53
37832;BME280;23671;38.090;-122.570;2023-04-01T03:27:44;102362.47;;;14.63;53.77
37832;BME280;23671;38.090;-122.570;2023-04-01T03:30:12;102364.63;;;14.57;53.69
37832;BME280;23671;38.090;-122.570;2023-04-01T03:32:39;102362.28;;;14.53;53.63
37832;BME280;23671;38.090;-122.570;2023-04-01T03:35:06;102359.28;;;14.45;53.36
37832;BME280;23671;38.090;-122.570;2023-04-01T03:37:33;102356.84;;;14.42;53.88
37832;BME280;23671;38.090;-122.570;2023-04-01T03:40:00;102360.69;;;14.38;53.73
37832;BME280;23671;38.090;-122.570;2023-04-01T03:42:27;102362.88;;;14.31;53.77
37832;BME280;23671;38.090;-122.570;2023-04-01T03:44:54;102357.97;;;14.25;53.36
37832;BME280;23671;38.090;-122.570;2023-04-01T03:47:21;102359.34;;;14.18;53.74
37832;BME280;23671;38.090;-122.570;2023-04-01T03:49:48;102357.72;;;14.16;53.79
37832;BME280;23671;38.090;-122.570;2023-04-01T03:52:15;102348.69;;;14.06;53.96
37832;BME280;23671;38.090;-122.570;2023-04-01T03:54:42;102357.63;;;14.05;54.10
37832;BME280;23671;38.090;-122.570;2023-04-01T03:57:10;102345.72;;;13.98;53.87
37832;BME280;23671;38.090;-122.570;2023-04-01T03:59:37;102342.38;;;13.94;54.11
37832;BME280;23671;38.090;-122.570;2023-04-01T04:02:04;102348.91;;;13.90;53.85
37832;BME280;23671;38.090;-122.570;2023-04-01T04:04:31;102352.88;;;13.83;54.36
37832;BME280;23671;38.090;-122.570;2023-04-01T04:06:58;102349.59;;;13.80;54.04
37832;BME280;23671;38.090;-122.570;2023-04-01T04:09:26;102350.75;;;13.76;54.28
37832;BME280;23671;38.090;-122.570;2023-04-01T04:11:53;102351.03;;;13.71;54.10
37832;BME280;23671;38.090;-122.570;2023-04-01T04:14:20;102357.59;;;13.65;53.87
37832;BME280;23671;38.090;-122.570;2023-04-01T04:16:47;102360.03;;;13.56;54.34
37832;BME280;23671;38.090;-122.570;2023-04-01T04:19:14;102361.91;;;13.54;54.31
37832;BME280;23671;38.090;-122.570;2023-04-01T04:21:42;102369.34;;;13.49;54.42
37832;BME280;23671;38.090;-122.570;2023-04-01T04:24:09;102363.28;;;13.47;53.86
37832;BME280;23671;38.090;-122.570;2023-04-01T04:26:36;102370.78;;;13.40;54.68
37832;BME280;23671;38.090;-122.570;2023-04-01T04:29:04;102370.13;;;13.37;54.56
37832;BME280;23671;38.090;-122.570;2023-04-01T04:31:31;102374.88;;;13.32;54.06
37832;BME280;23671;38.090;-122.570;2023-04-01T04:34:00;102378.97;;;13.23;54.19
37832;BME280;23671;38.090;-122.570;2023-04-01T04:36:29;102379.28;;;13.19;54.56
37832;BME280;23671;38.090;-122.570;2023-04-01T04:38:56;102385.81;;;13.13;54.61
37832;BME280;23671;38.090;-122.570;2023-04-01T04:41:24;102390.34;;;13.11;54.34
37832;BME280;23671;38.090;-122.570;2023-04-01T04:43:54;102386.63;;;13.00;54.09
37832;BME280;23671;38.090;-122.570;2023-04-01T04:46:22;102394.91;;;12.95;54.86
37832;BME280;23671;38.090;-122.570;2023-04-01T04:48:49;102400.38;;;12.92;54.90
37832;BME280;23671;38.090;-122.570;2023-04-01T04:51:17;102405.13;;;12.87;54.59
37832;BME280;23671;38.090;-122.570;2023-04-01T04:53:45;102408.91;;;12.83;54.96
37832;BME280;23671;38.090;-122.570;2023-04-01T04:56:12;102401.31;;;12.77;54.65
37832;BME280;23671;38.090;-122.570;2023-04-01T04:58:40;102404.34;;;12.71;55.05
37832;BME280;23671;38.090;-122.570;2023-04-01T05:01:08;102395.63;;;12.69;54.40
37832;BME280;23671;38.090;-122.570;2023-04-01T05:03:37;102400.66;;;12.59;55.27
37832;BME280;23671;38.090;-122.570;2023-04-01T05:06:05;102411.25;;;12.59;55.01
37832;BME280;23671;38.090;-122.570;2023-04-01T05:08:33;102416.63;;;12.58;55.08
37832;BME280;23671;38.090;-122.570;2023-04-01T05:11:01;102410.03;;;12.51;54.63
37832;BME280;23671;38.090;-122.570;2023-04-01T05:13:29;102411.91;;;12.49;54.98
37832;BME280;23671;38.090;-122.570;2023-04-01T05:15:56;102402.34;;;12.46;54.66
37832;BME280;23671;38.090;-122.570;2023-04-01T05:18:23;102400.81;;;12.42;55.17
37832;BME280;23671;38.090;-122.570;2023-04-01T05:20:52;102407.53;;;12.34;55.42
37832;BME280;23671;38.090;-122.570;2023-04-01T05:23:20;102400.88;;;12.27;55.53
37832;BME280;23671;38.090;-122.570;2023-04-01T05:25:50;102400.97;;;12.25;54.87
37832;BME280;23671;38.090;-122.570;2023-04-01T05:28:19;102394.25;;;12.20;55.54
37832;BME280;23671;38.090;-122.570;2023-04-01T05:30:47;102399.91;;;12.14;55.01
37832;BME280;23671;38.090;-122.570;2023-04-01T05:33:14;102392.97;;;12.11;55.45
37832;BME280;23671;38.090;-122.570;2023-04-01T05:35:41;102383.59;;;12.06;55.53
37832;BME280;23671;38.090;-122.570;2023-04-01T05:38:09;102394.09;;;12.07;55.59
37832;BME280;23671;38.090;-122.570;2023-04-01T05:40:35;102396.16;;;12.02;55.09
37832;BME280;23671;38.090;-122.570;2023-04-01T05:43:03;102396.44;;;11.98;55.07
37832;BME280;23671;38.090;-122.570;2023-04-01T05:45:30;102401.47;;;12.02;55.13
37832;BME280;23671;38.090;-122.570;2023-04-01T05:47:57;102402.09;;;11.92;55.04
37832;BME280;23671;38.090;-122.570;2023-04-01T05:50:24;102394.50;;;11.85;55.15
37832;BME280;23671;38.090;-122.570;2023-04-01T05:52:51;102386.94;;;11.79;55.60
37832;BME280;23671;38.090;-122.570;2023-04-01T05:55:18;102394.78;;;11.81;55.58
37832;BME280;23671;38.090;-122.570;2023-04-01T05:57:47;102384.44;;;11.76;55.14
37832;BME280;23671;38.090;-122.570;2023-04-01T06:00:16;102385.66;;;11.71;55.43
37832;BME280;23671;38.090;-122.570;2023-04-01T06:02:44;102379.06;;;11.62;55.90
37832;BME280;23671;38.090;-122.570;2023-04-01T06:05:18;102373.16;;;11.57;55.71
37832;BME280;23671;38.090;-122.570;2023-04-01T06:07:46;102385.81;;;11.52;55.87
37832;BME280;23671;38.090;-122.570;2023-04-01T06:10:17;102389.03;;;11.57;55.33
37832;BME280;23671;38.090;-122.570;2023-04-01T06:13:02;102378.81;;;11.51;55.74
37832;BME280;23671;38.090;-122.570;2023-04-01T06:15:57;102370.47;;;11.43;55.72
37832;BME280;23671;38.090;-122.570;2023-04-01T06:18:36;102380.34;;;11.40;55.79
37832;BME280;23671;38.090;-122.570;2023-04-01T06:26:48;102400.25;;;11.31;55.64
37832;BME280;23671;38.090;-122.570;2023-04-01T06:32:07;102399.03;;;11.37;55.49
37832;BME280;23671;38.090;-122.570;2023-04-01T06:34:57;102388.13;;;11.27;55.53
37832;BME280;23671;38.090;-122.570;2023-04-01T06:37:39;102383.00;;;11.24;55.57
37832;BME280;23671;38.090;-122.570;2023-04-01T06:42:58;102391.09;;;11.21;55.45
37832;BME280;23671;38.090;-122.570;2023-04-01T06:45:48;102388.66;;;11.18;55.44
37832;BME280;23671;38.090;-122.570;2023-04-01T06:53:58;102387.66;;;11.04;55.51
37832;BME280;23671;38.090;-122.570;2023-04-01T06:56:30;102389.41;;;11.05;55.46
37832;BME280;23671;38.090;-122.570;2023-04-01T07:04:18;102399.53;;;10.96;55.43
37832;BME280;23671;38.090;-122.570;2023-04-01T07:09:43;102391.22;;;10.87;55.62
37832;BME280;23671;38.090;-122.570;2023-04-01T07:12:46;102391.31;;;10.85;55.60
37832;BME280;23671;38.090;-122.570;2023-04-01T07:15:26;102386.19;;;10.82;55.49
37832;BME280;23671;38.090;-122.570;2023-04-01T07:18:59;102385.91;;;10.71;55.68
37832;BME280;23671;38.090;-122.570;2023-04-01T07:20:55;102385.75;;;10.74;55.56
37832;BME280;23671;38.090;-122.570;2023-04-01T07:23:25;102397.34;;;10.72;55.54
37832;BME280;23671;38.090;-122.570;2023-04-01T07:25:58;102390.88;;;10.77;55.46
37832;BME280;23671;38.090;-122.570;2023-04-01T07:28:29;102386.50;;;10.76;55.12
37832;BME280;23671;38.090;-122.570;2023-04-01T07:36:20;102404.50;;;10.70;55.10
37832;BME280;23671;38.090;-122.570;2023-04-01T07:42:30;102401.63;;;10.57;55.53
37832;BME280;23671;38.090;-122.570;2023-04-01T07:51:02;102396.59;;;10.53;55.21
37832;BME280;23671;38.090;-122.570;2023-04-01T08:08:39;102391.00;;;10.42;55.13
37832;BME280;23671;38.090;-122.570;2023-04-01T08:14:01;102391.47;;;10.33;55.04
37832;BME280;23671;38.090;-122.570;2023-04-01T08:22:29;102393.56;;;10.26;55.38
37832;BME280;23671;38.090;-122.570;2023-04-01T08:25:00;102383.00;;;10.26;55.05
37832;BME280;23671;38.090;-122.570;2023-04-01T08:27:38;102378.13;;;10.19;55.42
37832;BME280;23671;38.090;-122.570;2023-04-01T08:33:22;102370.38;;;10.16;55.12
37832;BME280;23671;38.090;-122.570;2023-04-01T08:36:22;102374.03;;;10.13;55.08
37832;BME280;23671;38.090;-122.570;2023-04-01T08:39:13;102367.09;;;10.11;55.03
37832;BME280;23671;38.090;-122.570;2023-04-01T08:44:59;102373.81;;;9.99;55.24
37832;BME280;23671;38.090;-122.570;2023-04-01T08:55:47;102366.28;;;9.91;55.22
37832;BME280;23671;38.090;-122.570;2023-04-01T08:58:54;102357.84;;;9.85;55.69
37832;BME280;23671;38.090;-122.570;2023-04-01T09:07:31;102371.47;;;9.76;55.25
37832;BME280;23671;38.090;-122.570;2023-04-01T09:10:22;102371.81;;;9.70;55.42
37832;BME280;23671;38.090;-122.570;2023-04-01T09:16:20;102379.72;;;9.70;55.18
37832;BME280;23671;38.090;-122.570;2023-04-01T09:22:05;102379.94;;;9.65;55.72
37832;BME280;23671;38.090;-122.570;2023-04-01T09:33:17;102376.09;;;9.54;55.34
37832;BME280;23671;38.090;-122.570;2023-04-01T09:41:30;102367.00;;;9.42;55.58
37832;BME280;23671;38.090;-122.570;2023-04-01T09:44:36;102370.78;;;9.37;55.94
37832;BME280;23671;38.090;-122.570;2023-04-01T09:50:03;102374.41;;;9.34;55.90
37832;BME280;23671;38.090;-122.570;2023-04-01T10:09:04;102347.31;;;9.13;55.65
37832;BME280;23671;38.090;-122.570;2023-04-01T10:14:25;102354.63;;;9.07;56.17
37832;BME280;23671;38.090;-122.570;2023-04-01T10:25:19;102347.88;;;9.01;55.72
37832;BME280;23671;38.090;-122.570;2023-04-01T10:47:11;102296.47;;;8.74;56.29
37832;BME280;23671;38.090;-122.570;2023-04-01T10:55:18;102303.66;;;8.71;57.13
37832;BME280;23671;38.090;-122.570;2023-04-01T11:09:21;102314.03;;;8.55;57.24
37832;BME280;23671;38.090;-122.570;2023-04-01T11:12:19;102308.69;;;8.57;56.58
37832;BME280;23671;38.090;-122.570;2023-04-01T11:29:03;102306.59;;;8.45;56.63
37832;BME280;23671;38.090;-122.570;2023-04-01T11:34:32;102301.75;;;8.36;57.13
37832;BME280;23671;38.090;-122.570;2023-04-01T11:43:11;102285.25;;;8.32;57.45
37832;BME280;23671;38.090;-122.570;2023-04-01T11:46:45;102284.41;;;8.32;57.18
37832;BME280;23671;38.090;-122.570;2023-04-01T12:05:38;102278.88;;;8.17;57.06
37832;BME280;23671;38.090;-122.570;2023-04-01T12:08:46;102277.22;;;8.15;57.84
37832;BME280;23671;38.090;-122.570;2023-04-01T12:27:25;102286.38;;;8.06;57.45
37832;BME280;23671;38.090;-122.570;2023-04-01T12:41:09;102308.88;;;7.93;57.56
37832;BME280;23671;38.090;-122.570;2023-04-01T12:49:57;102304.72;;;7.88;57.46
37832;BME280;23671;38.090;-122.570;2023-04-01T13:25:54;102322.06;;;7.72;57.99
37832;BME280;23671;38.090;-122.570;2023-04-01T13:28:32;102329.38;;;7.65;57.83
37832;BME280;23671;38.090;-122.570;2023-04-01T13:31:36;102325.72;;;7.68;57.87
37832;BME280;23671;38.090;-122.570;2023-04-01T13:37:16;102327.84;;;7.60;58.02
37832;BME280;23671;38.090;-122.570;2023-04-01T13:42:38;102326.06;;;7.60;58.32
37832;BME280;23671;38.090;-122.570;2023-04-01T13:45:20;102326.97;;;7.59;57.67
37832;BME280;23671;38.090;-122.570;2023-04-01T14:02:59;102325.56;;;7.51;58.06
37832;BME280;23671;38.090;-122.570;2023-04-01T14:06:09;102327.53;;;7.46;57.95
37832;BME280;23671;38.090;-122.570;2023-04-01T14:14:38;102331.88;;;7.47;57.84
37832;BME280;23671;38.090;-122.570;2023-04-01T14:34:16;102342.03;;;7.34;58.15
37832;BME280;23671;38.090;-122.570;2023-04-01T14:39:49;102351.75;;;7.32;58.38
37832;BME280;23671;38.090;-122.570;2023-04-01T14:45:51;102350.00;;;7.31;58.37
37832;BME280;23671;38.090;-122.570;2023-04-01T14:48:49;102350.09;;;7.29;58.19
37832;BME280;23671;38.090;-122.570;2023-04-01T14:54:16;102348.97;;;7.35;58.96
37832;BME280;23671;38.090;-122.570;2023-04-01T14:56:51;102345.56;;;7.33;58.87
37832;BME280;23671;38.090;-122.570;2023-04-01T14:59:29;102349.03;;;7.33;59.10
37832;BME280;23671;38.090;-122.570;2023-04-01T15:02:18;102345.53;;;7.34;59.15
37832;BME280;23671;38.090;-122.570;2023-04-01T15:08:23;102342.03;;;7.34;59.55
37832;BME280;23671;38.090;-122.570;2023-04-01T15:14:05;102372.53;;;7.38;60.54
37832;BME280;23671;38.090;-122.570;2023-04-01T15:19:38;102372.38;;;7.41;60.73
37832;BME280;23671;38.090;-122.570;2023-04-01T16:02:29;102367.66;;;8.12;64.59
37832;BME280;23671;38.090;-122.570;2023-04-01T16:04:38;102376.94;;;8.21;65.24
37832;BME280;23671;38.090;-122.570;2023-04-01T16:07:28;102377.56;;;8.27;65.15
37832;BME280;23671;38.090;-122.570;2023-04-01T16:15:20;102366.84;;;8.52;67.41
37832;BME280;23671;38.090;-122.570;2023-04-01T16:21:02;102384.66;;;8.66;67.55
37832;BME280;23671;38.090;-122.570;2023-04-01T16:23:51;102385.22;;;8.72;67.49
37832;BME280;23671;38.090;-122.570;2023-04-01T16:29:40;102392.38;;;8.89;67.55
37832;BME280;23671;38.090;-122.570;2023-04-01T16:38:32;102395.56;;;9.14;68.30
37832;BME280;23671;38.090;-122.570;2023-04-01T16:41:17;102403.94;;;9.24;68.01
37832;BME280;23671;38.090;-122.570;2023-04-01T16:43:52;102398.34;;;9.30;67.41
37832;BME280;23671;38.090;-122.570;2023-04-01T16:46:31;102402.34;;;9.38;67.18
37832;BME280;23671;38.090;-122.570;2023-04-01T16:49:13;102403.75;;;9.45;68.01
37832;BME280;23671;38.090;-122.570;2023-04-01T16:58:05;102391.09;;;9.70;66.86
37832;BME280;23671;38.090;-122.570;2023-04-01T17:22:42;102386.72;;;10.56;66.21
37832;BME280;23671;38.090;-122.570;2023-04-01T17:30:38;102388.69;;;10.85;65.45
37832;BME280;23671;38.090;-122.570;2023-04-01T17:33:25;102394.16;;;10.98;65.44
37832;BME280;23671;38.090;-122.570;2023-04-01T17:39:08;102393.16;;;11.16;65.60
37832;BME280;23671;38.090;-122.570;2023-04-01T17:50:17;102389.38;;;11.51;65.44
37832;BME280;23671;38.090;-122.570;2023-04-01T18:01:46;102395.50;;;11.99;66.44
37832;BME280;23671;38.090;-122.570;2023-04-01T18:10:07;102388.03;;;12.35;67.15
37832;BME280;23671;38.090;-122.570;2023-04-01T18:15:59;102387.50;;;12.58;67.29
37832;BME280;23671;38.090;-122.570;2023-04-01T18:18:50;102378.03;;;12.68;66.85
37832;BME280;23671;38.090;-122.570;2023-04-01T18:27:44;102380.97;;;12.92;66.74
37832;BME280;23671;38.090;-122.570;2023-04-01T18:32:54;102378.25;;;13.07;65.68
37832;BME280;23671;38.090;-122.570;2023-04-01T18:38:13;102370.84;;;13.26;65.62
37832;BME280;23671;38.090;-122.570;2023-04-01T18:40:50;102375.75;;;13.32;65.91
37832;BME280;23671;38.090;-122.570;2023-04-01T18:43:58;102378.84;;;13.39;65.49
37832;BME280;23671;38.090;-122.570;2023-04-01T18:52:21;102379.81;;;13.64;65.22
37832;BME280;23671;38.090;-122.570;2023-04-01T18:57:54;102383.19;;;13.81;65.78
37832;BME280;23671;38.090;-122.570;2023-04-01T19:00:39;102374.88;;;13.85;64.94
37832;BME280;23671;38.090;-122.570;2023-04-01T19:06:46;102373.97;;;13.99;65.28
37832;BME280;23671;38.090;-122.570;2023-04-01T19:09:45;102378.66;;;14.08;64.97
37832;BME280;23671;38.090;-122.570;2023-04-01T19:32:47;102370.88;;;14.56;65.13
37832;BME280;23671;38.090;-122.570;2023-04-01T19:43:21;102362.03;;;14.81;64.67
37832;BME280;23671;38.090;-122.570;2023-04-01T19:46:05;102358.94;;;14.87;65.04
37832;BME280;23671;38.090;-122.570;2023-04-01T19:51:37;102365.00;;;15.02;64.71
37832;BME280;23671;38.090;-122.570;2023-04-01T19:54:25;102365.38;;;15.08;64.68
37832;BME280;23671;38.090;-122.570;2023-04-01T20:05:25;102340.50;;;15.33;64.37
37832;BME280;23671;38.090;-122.570;2023-04-01T20:08:12;102345.38;;;15.39;64.49
37832;BME280;23671;38.090;-122.570;2023-04-01T20:11:01;102346.69;;;15.46;64.50
37832;BME280;23671;38.090;-122.570;2023-04-01T20:16:09;102331.38;;;15.61;64.23
37832;BME280;23671;38.090;-122.570;2023-04-01T20:18:58;102338.78;;;15.68;64.38
37832;BME280;23671;38.090;-122.570;2023-04-01T20:21:37;102327.56;;;15.76;64.09
37832;BME280;23671;38.090;-122.570;2023-04-01T20:24:43;102326.03;;;15.84;64.13
37832;BME280;23671;38.090;-122.570;2023-04-01T20:40:50;102311.47;;;16.23;63.41
37832;BME280;23671;38.090;-122.570;2023-04-01T20:52:55;102309.81;;;16.55;62.91
37832;BME280;23671;38.090;-122.570;2023-04-01T20:58:36;102313.00;;;16.71;62.55
37832;BME280;23671;38.090;-122.570;2023-04-01T21:11:59;102276.69;;;17.02;62.08
37832;BME280;23671;38.090;-122.570;2023-04-01T21:38:06;102252.16;;;17.40;60.02
37832;BME280;23671;38.090;-122.570;2023-04-01T21:40:47;102251.78;;;17.44;59.76
37832;BME280;23671;38.090;-122.570;2023-04-01T21:43:39;102247.03;;;17.48;60.03
37832;BME280;23671;38.090;-122.570;2023-04-01T21:49:22;102248.13;;;17.56;60.41
37832;BME280;23671;38.090;-122.570;2023-04-01T22:01:43;102234.25;;;17.83;58.85
37832;BME280;23671;38.090;-122.570;2023-04-01T22:06:34;102232.91;;;17.98;58.63
37832;BME280;23671;38.090;-122.570;2023-04-01T22:14:55;102235.25;;;18.12;57.89
37832;BME280;23671;38.090;-122.570;2023-04-01T22:25:59;102219.44;;;18.30;57.23
37832;BME280;23671;38.090;-122.570;2023-04-01T22:31:34;102211.72;;;18.36;57.21
37832;BME280;23671;38.090;-122.570;2023-04-01T22:37:10;102206.19;;;18.49;56.73
37832;BME280;23671;38.090;-122.570;2023-04-01T22:42:46;102212.97;;;18.62;56.75
37832;BME280;23671;38.090;-122.570;2023-04-01T22:45:38;102210.00;;;18.65;56.34
37832;BME280;23671;38.090;-122.570;2023-04-01T22:51:07;102214.13;;;18.79;56.56
37832;BME280;23671;38.090;-122.570;2023-04-01T22:53:47;102207.38;;;18.84;56.11
37832;BME280;23671;38.090;-122.570;2023-04-01T22:56:27;102209.09;;;18.85;55.88
37832;BME280;23671;38.090;-122.570;2023-04-01T23:01:37;102196.41;;;18.97;55.76
37832;BME280;23671;38.090;-122.570;2023-04-01T23:04:11;102203.03;;;19.02;56.10
37832;BME280;23671;38.090;-122.570;2023-04-01T23:06:47;102201.78;;;19.07;56.27
37832;BME280;23671;38.090;-122.570;2023-04-01T23:09:18;102200.38;;;19.12;56.26
37832;BME280;23671;38.090;-122.570;2023-04-01T23:12:03;102190.50;;;19.13;55.78
37832;BME280;23671;38.090;-122.570;2023-04-01T23:26:04;102182.63;;;19.40;55.82
37832;BME280;23671;38.090;-122.570;2023-04-01T23:28:39;102179.81;;;19.41;55.89
37832;BME280;23671;38.090;-122.570;2023-04-01T23:31:27;102182.75;;;19.48;56.79
37832;BME280;23671;38.090;-122.570;2023-04-01T23:34:20;102178.94;;;19.50;56.02
37832;BME280;23671;38.090;-122.570;2023-04-01T23:36:55;102196.00;;;19.59;55.30
37832;BME280;23671;38.090;-122.570;2023-04-01T23:39:38;102186.25;;;19.58;56.07
37832;BME280;23671;38.090;-122.570;2023-04-01T23:42:12;102189.94;;;19.57;55.47
37832;BME280;23671;38.090;-122.570;2023-04-01T23:44:40;102195.00;;;19.60;56.60
37832;BME280;23671;38.090;-122.570;2023-04-01T23:47:44;102187.66;;;19.62;56.77
37832;BME280;23671;38.090;-122.570;2023-04-01T23:50:10;102192.06;;;19.63;56.68
37832;BME280;23671;38.090;-122.570;2023-04-01T23:52:52;102177.94;;;19.61;56.81
37832;BME280;23671;38.090;-122.570;2023-04-01T23:55:25;102194.06;;;19.51;53.94
37832;BME280;23671;38.090;-122.570;2023-04-01T23:58:53;102182.31;;;19.24;50.59
